Kezdőlap
METAR-TAF:

METAR-TAF

Repülőterek :

Savonlinna, Finnország

földrajzi szélesség: 61-57N, földrajzi hosszúság: 028-57E, magasság: 95 m

Jelenlegi meteorológiai megfigyelések

A jelentés 8 órával és 5 perccel ezelõtt készült, 05:20 UTC
Nyugat-északnyugati szél 8 kt, nyugati és észak-északnyugati között változik
Hőmérséklet 12°C
Páratartalom 94%
Légköri nyomás 999 hPa
Látótávolság 10 km, vagy több
Borult 7200 lábon
szitálás

METAR: EFSA 210520Z AUTO 30008KT 270V340 9999 DZ OVC072 12/11 Q0999

Idő: 16:25 (13:25 UTC)


TAF: hiányzik

Meteorológiai megfigyelések és előrejelzések több, mint 4000 repülőtéren (METAR és TAF jelentéseket).

A térképen piros és sárga pontok jelzik az elérhető meteorológiai állomásokat.

Mozgassa az egeret a pont fölött, hogy megjelenjen az állomás neve.

Azután kattintson az időjárási megfigyelések és előrejelzések megtekintéséhez.

A térkép megváltoztatása: kattintson a fekete keresztel jelölt zöld gombra ráközelítéshez, a vonallal jelölt zöld gombra távolításhoz, vagy a zöld nyilakra a szomszédos térképek eléréséhez.


METAR-TAF: